createdAt,value
2018-03-16T00:02:18.057Z,89.68
2018-03-16T00:04:47.294Z,89.22
2018-03-16T00:07:16.500Z,79.10
2018-03-16T00:09:45.661Z,86.43
2018-03-16T00:12:14.927Z,96.25
2018-03-16T00:14:44.023Z,141.43
2018-03-16T00:17:13.209Z,129.45
2018-03-16T00:19:42.467Z,121.72
2018-03-16T00:25:08.005Z,111.57
2018-03-16T00:27:37.394Z,109.87
2018-03-16T00:30:06.672Z,105.60
2018-03-16T00:32:36.009Z,101.32
2018-03-16T00:35:05.020Z,98.55
2018-03-16T00:37:34.073Z,95.10
2018-03-16T00:40:03.436Z,89.55
2018-03-16T00:42:33.048Z,88.37
2018-03-16T00:45:02.285Z,82.88
2018-03-16T00:47:31.453Z,80.20
2018-03-16T00:50:00.878Z,83.15
2018-03-16T00:52:30.215Z,74.95
2018-03-16T00:54:59.251Z,75.25
2018-03-16T00:57:28.746Z,81.10
2018-03-16T00:59:58.263Z,83.97
2018-03-16T01:02:27.715Z,80.40
2018-03-16T01:04:57.005Z,76.28
2018-03-16T01:07:26.258Z,75.57
2018-03-16T01:09:55.431Z,85.80
2018-03-16T01:12:24.681Z,86.22
2018-03-16T01:14:53.921Z,92.53
2018-03-16T01:17:23.197Z,88.60
2018-03-16T01:19:52.589Z,99.50
2018-03-16T01:22:21.808Z,104.43
2018-03-16T01:24:51.073Z,102.57
2018-03-16T01:27:20.254Z,93.18
2018-03-16T01:29:49.901Z,90.72
2018-03-16T01:32:19.485Z,82.25
2018-03-16T01:34:48.792Z,76.50
2018-03-16T01:37:18.115Z,89.03
2018-03-16T01:39:47.369Z,91.45
2018-03-16T01:42:16.604Z,90.03
2018-03-16T01:44:45.791Z,98.78
2018-03-16T01:47:14.893Z,92.12
2018-03-16T01:49:44.104Z,99.85
2018-03-16T01:52:13.267Z,87.43
2018-03-16T01:54:42.870Z,83.15
2018-03-16T01:57:12.210Z,81.80
2018-03-16T01:59:41.274Z,78.93
2018-03-16T02:02:10.821Z,77.20
2018-03-16T02:04:40.123Z,71.15
2018-03-16T02:07:09.474Z,69.10
2018-03-16T02:09:39.385Z,69.82
2018-03-16T02:12:08.751Z,66.07
2018-03-16T02:14:38.132Z,64.22
2018-03-16T02:17:07.466Z,65.53
2018-03-16T02:19:36.536Z,70.37
2018-03-16T02:22:05.853Z,59.67
2018-03-16T02:24:35.294Z,57.88
2018-03-16T02:27:04.723Z,59.15
2018-03-16T02:29:34.214Z,56.72
2018-03-16T02:32:03.465Z,57.28
2018-03-16T02:34:32.802Z,56.90
2018-03-16T02:37:02.339Z,56.72
2018-03-16T02:39:31.594Z,52.95
2018-03-16T02:42:00.920Z,50.58
2018-03-16T02:44:30.324Z,51.65
2018-03-16T02:46:59.713Z,51.97
2018-03-16T02:49:28.876Z,51.92
2018-03-16T02:51:57.974Z,51.58
2018-03-16T02:54:27.327Z,51.50
2018-03-16T02:56:56.775Z,54.78
2018-03-16T02:59:26.220Z,48.40
2018-03-16T03:01:55.574Z,49.42
2018-03-16T03:04:24.891Z,48.03
2018-03-16T03:06:54.131Z,46.80
2018-03-16T03:09:23.321Z,50.53
2018-03-16T03:11:52.676Z,54.38
2018-03-16T03:14:22.065Z,55.20
2018-03-16T03:16:51.321Z,58.63
2018-03-16T03:19:20.735Z,55.83
2018-03-16T03:21:50.268Z,54.72
2018-03-16T03:24:19.684Z,55.30
2018-03-16T03:26:49.213Z,58.83
2018-03-16T03:29:18.341Z,52.17
2018-03-16T03:31:47.433Z,60.20
2018-03-16T03:34:16.537Z,59.67
2018-03-16T03:36:45.809Z,57.15
2018-03-16T03:39:15.169Z,57.22
2018-03-16T03:41:44.343Z,59.95
2018-03-16T03:44:13.538Z,65.28
2018-03-16T03:46:43.081Z,60.20
2018-03-16T03:49:12.543Z,58.78
2018-03-16T03:51:41.855Z,114.82
2018-03-16T03:54:10.934Z,58.53
2018-03-16T03:56:40.110Z,67.12
2018-03-16T03:59:09.477Z,50.88
2018-03-16T04:01:38.737Z,81.70
2018-03-16T04:04:08.149Z,148.93
2018-03-16T04:06:37.788Z,129.00
2018-03-16T04:09:07.053Z,127.78
2018-03-16T04:11:36.349Z,234.75
2018-03-16T04:14:05.902Z,225.77
2018-03-16T04:16:35.479Z,192.55
2018-03-16T04:19:04.780Z,168.45
2018-03-16T04:21:34.554Z,161.40
2018-03-16T04:24:03.881Z,171.05
2018-03-16T04:26:33.221Z,302.10
2018-03-16T04:29:02.647Z,141.35
2018-03-16T04:31:32.006Z,93.47
2018-03-16T04:34:01.181Z,83.57
2018-03-16T04:36:30.177Z,125.40
2018-03-16T04:38:59.502Z,69.82
2018-03-16T04:41:28.637Z,65.55
2018-03-16T04:43:57.884Z,60.22
2018-03-16T04:46:27.049Z,61.45
2018-03-16T04:48:56.677Z,47.55
2018-03-16T04:51:26.284Z,48.63
2018-03-16T04:53:55.502Z,39.65
2018-03-16T04:56:24.845Z,40.70
2018-03-16T04:58:54.000Z,39.70
2018-03-16T05:01:23.236Z,45.03
2018-03-16T05:03:52.491Z,43.72
2018-03-16T05:06:21.994Z,40.88
2018-03-16T05:08:51.141Z,45.25
2018-03-16T05:11:20.278Z,45.38
2018-03-16T05:13:49.989Z,41.15
2018-03-16T05:16:19.397Z,40.10
2018-03-16T05:18:48.590Z,37.58
2018-03-16T05:21:17.952Z,36.13
2018-03-16T05:23:47.199Z,42.47
2018-03-16T05:26:16.403Z,35.92
2018-03-16T05:28:45.689Z,32.85
2018-03-16T05:31:15.097Z,33.78
2018-03-16T05:33:44.645Z,33.42
2018-03-16T05:36:13.918Z,40.72
2018-03-16T05:38:43.115Z,35.03
2018-03-16T05:41:13.031Z,39.03
2018-03-16T05:43:42.022Z,41.95
2018-03-16T05:46:11.186Z,40.28
2018-03-16T05:48:40.465Z,33.88
2018-03-16T05:51:09.709Z,29.20
2018-03-16T05:53:39.136Z,25.75
2018-03-16T05:56:08.522Z,38.22
2018-03-16T05:58:38.087Z,29.20
2018-03-16T06:01:07.765Z,29.90
2018-03-16T06:03:36.984Z,37.55
2018-03-16T06:06:06.243Z,26.00
2018-03-16T06:08:35.797Z,25.95
2018-03-16T06:11:05.400Z,33.17
2018-03-16T06:13:34.649Z,25.13
2018-03-16T06:16:03.634Z,25.60
2018-03-16T06:18:32.941Z,27.07
2018-03-16T06:21:02.351Z,24.07
2018-03-16T06:23:31.741Z,27.43
2018-03-16T06:26:00.937Z,31.83
2018-03-16T06:28:30.251Z,32.80
2018-03-16T06:30:59.613Z,34.73
2018-03-16T06:33:28.847Z,38.00
2018-03-16T06:35:58.358Z,40.87
2018-03-16T06:38:27.441Z,45.47
2018-03-16T06:40:56.536Z,46.93
2018-03-16T06:43:25.573Z,30.07
2018-03-16T06:45:55.082Z,38.33
2018-03-16T06:48:24.351Z,34.50
2018-03-16T06:50:54.725Z,26.67
2018-03-16T06:53:24.070Z,24.10
2018-03-16T06:55:53.270Z,34.77
2018-03-16T06:58:22.937Z,24.43
2018-03-16T07:00:52.181Z,27.90
2018-03-16T07:03:21.547Z,26.50
2018-03-16T07:05:50.953Z,37.07
2018-03-16T07:08:20.490Z,32.63
2018-03-16T07:10:49.951Z,30.60
2018-03-16T07:13:19.313Z,25.07
2018-03-16T07:15:48.597Z,26.37
2018-03-16T07:18:18.131Z,30.17
2018-03-16T07:20:47.383Z,28.60
2018-03-16T07:23:16.909Z,24.00
2018-03-16T07:25:46.110Z,22.77
2018-03-16T07:28:15.203Z,19.63
2018-03-16T07:30:44.254Z,18.00
2018-03-16T07:33:13.706Z,15.27
2018-03-16T07:35:43.149Z,14.40
2018-03-16T07:38:12.431Z,16.60
2018-03-16T07:40:41.558Z,16.03
2018-03-16T07:43:10.902Z,15.20
2018-03-16T07:45:45.909Z,18.60
2018-03-16T07:48:15.241Z,15.70
2018-03-16T07:50:44.496Z,19.10
2018-03-16T07:53:13.809Z,15.17
2018-03-16T07:55:42.818Z,15.77
2018-03-16T07:58:12.147Z,16.67
2018-03-16T08:00:41.787Z,13.57
2018-03-16T08:03:11.259Z,17.20
2018-03-16T08:05:40.593Z,14.57
2018-03-16T08:08:09.968Z,18.43
2018-03-16T08:10:39.178Z,17.97
2018-03-16T08:13:08.323Z,18.10
2018-03-16T08:15:37.573Z,20.90
2018-03-16T08:18:06.961Z,15.77
2018-03-16T08:20:36.286Z,18.77
2018-03-16T08:23:05.872Z,13.90
2018-03-16T08:25:35.283Z,13.50
2018-03-16T08:28:04.771Z,13.40
2018-03-16T08:30:34.425Z,14.37
2018-03-16T08:33:03.645Z,13.63
2018-03-16T08:35:32.791Z,15.60
2018-03-16T08:38:02.150Z,19.23
2018-03-16T08:40:31.256Z,13.57
2018-03-16T08:43:00.801Z,13.43
2018-03-16T08:45:30.490Z,11.13
2018-03-16T08:47:59.793Z,13.27
2018-03-16T08:50:29.305Z,11.87
2018-03-16T08:52:58.456Z,12.20
2018-03-16T08:55:27.969Z,15.33
2018-03-16T08:57:57.129Z,17.03
2018-03-16T09:00:26.401Z,15.80
2018-03-16T09:02:55.822Z,10.70
2018-03-16T09:05:25.106Z,10.93
2018-03-16T09:07:54.292Z,19.63
2018-03-16T09:10:23.573Z,15.03
2018-03-16T09:12:53.027Z,15.53
2018-03-16T09:15:22.526Z,14.00
2018-03-16T09:17:51.843Z,13.97
2018-03-16T09:20:21.261Z,17.23
2018-03-16T09:22:50.333Z,12.93
2018-03-16T09:25:19.599Z,12.80
2018-03-16T09:27:48.853Z,13.73
2018-03-16T09:30:17.928Z,15.90
2018-03-16T09:32:47.129Z,15.93
2018-03-16T09:35:16.825Z,13.50
2018-03-16T09:37:46.053Z,13.93
2018-03-16T09:40:15.195Z,11.63
2018-03-16T09:42:44.294Z,12.03
2018-03-16T09:45:13.734Z,9.57
2018-03-16T09:47:43.121Z,15.40
2018-03-16T09:50:12.430Z,10.67
2018-03-16T09:52:43.102Z,9.17
2018-03-16T09:55:23.493Z,10.53
2018-03-16T09:57:52.776Z,9.00
2018-03-16T10:00:22.129Z,12.93
2018-03-16T10:02:51.294Z,9.73
2018-03-16T10:05:20.577Z,10.73
2018-03-16T10:07:49.879Z,18.93
2018-03-16T10:10:19.002Z,9.23
2018-03-16T10:12:48.223Z,12.23
2018-03-16T10:15:18.601Z,8.43
2018-03-16T10:17:47.870Z,16.37
2018-03-16T10:20:17.246Z,9.03
2018-03-16T10:22:46.561Z,9.63
2018-03-16T10:25:15.706Z,15.00
2018-03-16T10:27:45.263Z,12.33
2018-03-16T10:30:14.702Z,13.33
2018-03-16T10:32:44.057Z,15.70
2018-03-16T10:35:13.301Z,20.10
2018-03-16T10:37:42.363Z,16.30
2018-03-16T10:40:11.519Z,11.03
2018-03-16T10:42:40.482Z,17.50
2018-03-16T10:45:09.705Z,10.80
2018-03-16T10:47:38.798Z,8.13
2018-03-16T10:50:08.069Z,12.63
2018-03-16T10:52:38.633Z,17.83
2018-03-16T10:55:08.191Z,21.13
2018-03-16T10:57:37.330Z,22.27
2018-03-16T11:00:07.134Z,16.43
2018-03-16T11:02:42.111Z,23.70
2018-03-16T11:05:17.037Z,20.37
2018-03-16T11:08:07.173Z,21.83
2018-03-16T11:10:36.413Z,14.20
2018-03-16T11:13:05.545Z,15.67
2018-03-16T11:15:34.846Z,12.67
2018-03-16T11:18:04.151Z,15.73
2018-03-16T11:20:33.397Z,11.77
2018-03-16T11:23:02.505Z,11.90
2018-03-16T11:25:31.567Z,12.03
2018-03-16T11:28:00.985Z,26.67
2018-03-16T11:30:30.222Z,17.57
2018-03-16T11:32:59.737Z,11.27
2018-03-16T11:35:28.907Z,11.97
2018-03-16T11:37:58.137Z,17.07
2018-03-16T11:40:27.267Z,11.23
2018-03-16T11:42:56.757Z,13.43
2018-03-16T11:45:26.301Z,16.23
2018-03-16T11:47:55.725Z,21.13
2018-03-16T11:50:25.003Z,11.90
2018-03-16T11:52:54.307Z,12.83
2018-03-16T11:55:23.562Z,14.00
2018-03-16T11:57:52.927Z,13.70
2018-03-16T12:00:22.374Z,15.37
2018-03-16T12:02:51.673Z,15.03
2018-03-16T12:05:21.019Z,13.90
2018-03-16T12:07:50.685Z,16.20
2018-03-16T12:10:20.250Z,11.97
2018-03-16T12:12:49.908Z,11.87
2018-03-16T12:15:19.518Z,13.07
2018-03-16T12:17:49.228Z,14.47
2018-03-16T12:20:18.990Z,13.30
2018-03-16T12:22:48.333Z,12.90
2018-03-16T12:25:17.468Z,11.73
2018-03-16T12:27:46.465Z,16.00
2018-03-16T12:30:15.630Z,14.70
2018-03-16T12:32:44.930Z,8.13
2018-03-16T12:35:14.098Z,13.23
2018-03-16T12:37:43.480Z,15.10
2018-03-16T12:40:12.750Z,9.73
2018-03-16T12:42:42.127Z,9.83
2018-03-16T12:45:11.095Z,9.27
2018-03-16T12:47:40.738Z,9.50
2018-03-16T12:50:09.981Z,8.53
2018-03-16T12:52:39.337Z,8.10
2018-03-16T12:55:08.941Z,7.80
2018-03-16T12:57:38.361Z,8.03
2018-03-16T13:00:07.390Z,9.70
2018-03-16T13:02:36.745Z,10.10
2018-03-16T13:05:06.002Z,9.23
2018-03-16T13:07:35.255Z,14.23
2018-03-16T13:10:04.367Z,12.50
2018-03-16T13:12:33.637Z,15.90
2018-03-16T13:15:02.777Z,14.33
2018-03-16T13:17:32.183Z,11.33
2018-03-16T13:20:01.307Z,14.33
2018-03-16T13:22:30.654Z,9.30
2018-03-16T13:25:00.004Z,10.47
2018-03-16T13:27:29.341Z,12.23
2018-03-16T13:29:58.550Z,12.80
2018-03-16T13:32:27.841Z,9.70
2018-03-16T13:34:57.155Z,7.07
2018-03-16T13:37:26.455Z,8.77
2018-03-16T13:39:55.645Z,10.07
2018-03-16T13:42:24.947Z,9.40
2018-03-16T13:44:54.214Z,10.30
2018-03-16T13:47:23.445Z,11.87
2018-03-16T13:49:52.749Z,7.37
2018-03-16T13:52:22.253Z,14.73
2018-03-16T13:54:51.667Z,9.67
2018-03-16T13:57:21.274Z,14.90
2018-03-16T13:59:50.776Z,18.23
2018-03-16T14:02:20.077Z,11.47
2018-03-16T14:04:49.686Z,10.67
2018-03-16T14:07:18.939Z,11.70
2018-03-16T14:09:48.230Z,17.57
2018-03-16T14:12:17.381Z,18.80
2018-03-16T14:14:47.050Z,27.20
2018-03-16T14:17:16.343Z,19.27
2018-03-16T14:19:45.589Z,25.63
2018-03-16T14:22:15.102Z,14.80
2018-03-16T14:24:45.123Z,13.47
2018-03-16T14:27:14.472Z,13.97
2018-03-16T14:29:43.784Z,11.97
2018-03-16T14:32:12.978Z,17.10
2018-03-16T14:34:42.217Z,10.33
2018-03-16T14:37:11.539Z,17.70
2018-03-16T14:39:40.787Z,11.20
2018-03-16T14:42:10.066Z,12.00
2018-03-16T14:44:39.361Z,9.77
2018-03-16T14:47:08.631Z,8.67
2018-03-16T14:49:38.310Z,7.83
2018-03-16T14:52:07.837Z,10.03
2018-03-16T14:54:37.246Z,14.23
2018-03-16T14:57:06.382Z,12.80
2018-03-16T14:59:35.955Z,16.43
2018-03-16T15:02:05.309Z,27.97
2018-03-16T15:04:34.773Z,14.10
2018-03-16T15:07:04.125Z,14.97
2018-03-16T15:09:33.601Z,15.27
2018-03-16T15:12:03.078Z,18.70
2018-03-16T15:14:32.275Z,12.33
2018-03-16T15:17:01.574Z,16.00
2018-03-16T15:19:30.953Z,13.00
2018-03-16T15:22:00.246Z,9.57
2018-03-16T15:24:29.577Z,11.37
2018-03-16T15:26:58.921Z,15.43
2018-03-16T15:29:28.377Z,9.67
2018-03-16T15:31:58.256Z,13.53
2018-03-16T15:34:27.502Z,12.30
2018-03-16T15:36:56.650Z,18.27
2018-03-16T15:39:26.106Z,10.47
2018-03-16T15:41:55.203Z,14.97
2018-03-16T15:44:24.330Z,15.17
2018-03-16T15:46:53.643Z,21.43
2018-03-16T15:49:22.889Z,16.70
2018-03-16T15:51:52.218Z,21.57
2018-03-16T15:54:21.343Z,15.80
2018-03-16T15:56:50.786Z,12.60
2018-03-16T15:59:19.889Z,16.33
2018-03-16T16:01:49.085Z,9.97
2018-03-16T16:04:18.197Z,20.33
2018-03-16T16:06:47.207Z,14.63
2018-03-16T16:09:16.381Z,14.07
2018-03-16T16:11:45.694Z,12.20
2018-03-16T16:14:15.031Z,13.83
2018-03-16T16:16:44.594Z,16.40
2018-03-16T16:19:14.459Z,14.60
2018-03-16T16:21:43.631Z,16.73
2018-03-16T16:24:12.855Z,18.00
2018-03-16T16:26:42.349Z,17.97
2018-03-16T16:29:11.605Z,17.00
2018-03-16T16:31:40.769Z,12.73
2018-03-16T16:34:10.005Z,14.53
2018-03-16T16:36:39.337Z,12.93
2018-03-16T16:39:08.795Z,13.87
2018-03-16T16:41:38.122Z,21.97
2018-03-16T16:44:07.458Z,23.80
2018-03-16T16:46:36.918Z,21.07
2018-03-16T16:49:06.129Z,15.73
2018-03-16T16:51:35.510Z,13.03
2018-03-16T16:54:04.643Z,15.80
2018-03-16T16:56:33.810Z,18.20
2018-03-16T16:59:03.160Z,18.83
2018-03-16T17:01:32.539Z,23.17
2018-03-16T17:04:02.192Z,17.60
2018-03-16T17:06:31.737Z,17.30
2018-03-16T17:09:01.257Z,15.67
2018-03-16T17:11:30.665Z,16.00
2018-03-16T17:13:59.911Z,21.43
2018-03-16T17:16:29.062Z,17.17
2018-03-16T17:18:58.251Z,19.03
2018-03-16T17:21:27.296Z,16.27
2018-03-16T17:23:56.681Z,15.00
2018-03-16T17:26:25.901Z,17.27
2018-03-16T17:28:55.471Z,23.37
2018-03-16T17:31:24.607Z,19.53
2018-03-16T17:33:53.576Z,19.30
2018-03-16T17:36:22.669Z,16.50
2018-03-16T17:38:52.034Z,19.60
2018-03-16T17:41:21.133Z,15.83
2018-03-16T17:43:50.228Z,15.67
2018-03-16T17:46:19.398Z,23.33
2018-03-16T17:48:48.073Z,18.30
2018-03-16T17:51:17.159Z,16.97
2018-03-16T17:53:46.330Z,26.73
2018-03-16T17:56:15.595Z,20.40
2018-03-16T17:58:45.383Z,20.07
2018-03-16T18:01:14.736Z,25.07
2018-03-16T18:03:43.807Z,21.27
2018-03-16T18:06:13.083Z,31.47
2018-03-16T18:08:42.358Z,27.33
2018-03-16T18:11:11.854Z,23.00
2018-03-16T18:13:41.209Z,20.80
2018-03-16T18:16:10.442Z,19.70
2018-03-16T18:18:39.423Z,19.87
2018-03-16T18:21:08.461Z,16.97
2018-03-16T18:23:37.454Z,23.00
2018-03-16T18:26:06.569Z,28.27
2018-03-16T18:28:35.633Z,33.93
2018-03-16T18:31:04.878Z,42.73
2018-03-16T18:33:34.334Z,48.93
2018-03-16T18:36:03.485Z,34.10
2018-03-16T18:38:32.616Z,34.73
2018-03-16T18:41:01.838Z,142.13
2018-03-16T18:43:30.950Z,23.10
2018-03-16T18:46:00.170Z,18.17
2018-03-16T18:48:29.454Z,18.57
2018-03-16T18:50:58.732Z,17.97
2018-03-16T18:53:27.978Z,17.47
2018-03-16T18:55:57.213Z,17.27
2018-03-16T18:58:26.317Z,17.50
2018-03-16T19:00:55.846Z,30.47
2018-03-16T19:03:24.970Z,27.17
2018-03-16T19:05:53.996Z,17.77
2018-03-16T19:08:23.196Z,18.70
2018-03-16T19:10:52.151Z,20.00
2018-03-16T19:13:21.285Z,23.40
2018-03-16T19:15:50.518Z,20.93
2018-03-16T19:18:19.551Z,21.37
2018-03-16T19:20:48.676Z,19.27
2018-03-16T19:23:18.080Z,22.10
2018-03-16T19:25:47.303Z,19.40
2018-03-16T19:28:16.330Z,15.13
2018-03-16T19:30:45.381Z,15.73
2018-03-16T19:33:14.510Z,17.70
2018-03-16T19:35:43.819Z,17.47
2018-03-16T19:38:12.965Z,17.53
2018-03-16T19:40:41.939Z,15.20
2018-03-16T19:43:11.123Z,19.13
2018-03-16T19:45:40.090Z,18.60
2018-03-16T19:48:09.312Z,15.53
2018-03-16T19:50:38.503Z,17.67
2018-03-16T19:53:08.051Z,17.03
2018-03-16T19:55:37.463Z,86.27
2018-03-16T19:58:06.830Z,19.13
2018-03-16T20:00:35.958Z,17.70
2018-03-16T20:03:05.313Z,13.83
2018-03-16T20:05:34.542Z,18.10
2018-03-16T20:08:03.795Z,21.20
2018-03-16T20:10:33.186Z,18.43
2018-03-16T20:13:02.139Z,12.57
2018-03-16T20:15:31.310Z,16.93
2018-03-16T20:18:00.525Z,19.53
2018-03-16T20:20:29.605Z,18.67
2018-03-16T20:22:58.715Z,24.93
2018-03-16T20:25:28.016Z,22.60
2018-03-16T20:27:57.018Z,20.70
2018-03-16T20:30:26.115Z,23.60
2018-03-16T20:32:55.049Z,18.33
2018-03-16T20:35:23.977Z,22.47
2018-03-16T20:37:53.318Z,23.90
2018-03-16T20:40:22.697Z,22.87
2018-03-16T20:42:51.951Z,25.27
2018-03-16T20:45:21.102Z,15.57
2018-03-16T20:47:50.333Z,13.93
2018-03-16T20:50:19.374Z,16.63
2018-03-16T20:52:48.633Z,18.60
2018-03-16T20:55:17.776Z,16.53
2018-03-16T20:57:47.050Z,16.40
2018-03-16T21:00:16.442Z,20.53
2018-03-16T21:02:45.729Z,17.20
2018-03-16T21:05:15.055Z,20.10
2018-03-16T21:07:44.223Z,19.67
2018-03-16T21:10:13.487Z,15.77
2018-03-16T21:12:42.649Z,20.60
2018-03-16T21:15:11.881Z,15.60
2018-03-16T21:17:41.431Z,19.83
2018-03-16T21:20:10.525Z,18.07
2018-03-16T21:22:39.738Z,15.60
2018-03-16T21:25:08.784Z,14.87
2018-03-16T21:27:37.773Z,19.50
2018-03-16T21:30:07.167Z,17.27
2018-03-16T21:32:36.271Z,14.13
2018-03-16T21:35:05.469Z,17.20
2018-03-16T21:37:34.801Z,15.43
2018-03-16T21:40:04.104Z,18.33
2018-03-16T21:42:33.373Z,19.83
2018-03-16T21:45:02.552Z,28.63
2018-03-16T21:47:31.883Z,20.33
2018-03-16T21:50:00.941Z,19.20
2018-03-16T21:52:30.269Z,16.97
2018-03-16T21:54:59.359Z,17.10
2018-03-16T21:57:28.612Z,17.77
2018-03-16T21:59:57.869Z,13.63
2018-03-16T22:02:27.165Z,19.03
2018-03-16T22:04:56.815Z,15.73
2018-03-16T22:07:26.230Z,13.47
2018-03-16T22:09:55.379Z,19.13
2018-03-16T22:12:24.442Z,16.97
2018-03-16T22:14:53.773Z,19.40
2018-03-16T22:17:23.166Z,16.50
2018-03-16T22:19:52.609Z,26.03
2018-03-16T22:22:21.685Z,16.13
2018-03-16T22:24:50.755Z,15.40
2018-03-16T22:27:19.829Z,17.83
2018-03-16T22:29:49.121Z,17.83
2018-03-16T22:32:18.185Z,17.83
2018-03-16T22:34:47.526Z,17.50
2018-03-16T22:37:16.717Z,15.73
2018-03-16T22:39:45.761Z,17.17
2018-03-16T22:42:15.023Z,16.40
2018-03-16T22:44:44.311Z,21.47
2018-03-16T22:47:13.390Z,15.33
2018-03-16T22:49:42.459Z,14.27
2018-03-16T22:52:11.704Z,15.47
2018-03-16T22:54:40.890Z,18.17
2018-03-16T22:57:11.555Z,15.07
2018-03-16T22:59:40.815Z,14.77
2018-03-16T23:02:10.071Z,14.80
2018-03-16T23:04:39.194Z,16.00
2018-03-16T23:07:08.249Z,15.57
2018-03-16T23:09:37.461Z,13.90
2018-03-16T23:12:06.846Z,16.17
2018-03-16T23:14:36.081Z,24.60
2018-03-16T23:17:05.327Z,24.77
2018-03-16T23:19:34.473Z,17.50
2018-03-16T23:22:03.407Z,27.87
2018-03-16T23:24:32.586Z,16.07
2018-03-16T23:27:01.989Z,20.90
2018-03-16T23:29:31.274Z,14.10
2018-03-16T23:32:00.494Z,15.37
2018-03-16T23:34:30.087Z,12.40
2018-03-16T23:36:59.325Z,15.07
2018-03-16T23:39:28.612Z,12.03
2018-03-16T23:41:58.042Z,13.43
2018-03-16T23:44:27.412Z,11.73
2018-03-16T23:46:56.920Z,13.37
2018-03-16T23:49:25.974Z,10.43
2018-03-16T23:51:55.215Z,15.87
2018-03-16T23:54:24.296Z,14.93
2018-03-16T23:56:53.706Z,16.47
2018-03-16T23:59:23.166Z,16.53
